createdAt,value
2023-10-10T00:01:45.912Z,59.42
2023-10-10T00:04:13.406Z,59.62
2023-10-10T00:06:41.624Z,59.38
2023-10-10T00:09:11.989Z,59.04
2023-10-10T00:11:43.510Z,59.92
2023-10-10T00:14:20.674Z,59.73
2023-10-10T00:16:56.764Z,59.31
2023-10-10T00:19:38.661Z,59.16
2023-10-10T00:22:08.073Z,59.44
2023-10-10T00:24:35.074Z,59.15
2023-10-10T00:27:14.637Z,58.91
2023-10-10T00:29:44.999Z,59.27
2023-10-10T00:32:19.511Z,59.55
2023-10-10T00:34:49.465Z,59.15
2023-10-10T00:37:18.809Z,59.88
2023-10-10T00:39:53.955Z,59.06
2023-10-10T00:42:21.734Z,59.27
2023-10-10T00:44:49.985Z,59.07
2023-10-10T00:47:17.389Z,59.28
2023-10-10T00:49:46.432Z,59.14
2023-10-10T00:52:18.171Z,59.17
2023-10-10T00:54:45.325Z,58.73
2023-10-10T00:57:21.247Z,59.25
2023-10-10T00:59:49.719Z,59.24
2023-10-10T01:02:22.602Z,58.99
2023-10-10T01:04:50.462Z,59.15
2023-10-10T01:07:21.993Z,59.07
2023-10-10T01:09:55.792Z,59.14
2023-10-10T01:12:24.546Z,59.16
2023-10-10T01:14:56.224Z,59.14
2023-10-10T01:17:30.460Z,59.01
2023-10-10T01:20:19.200Z,58.95
2023-10-10T01:22:50.132Z,59.09
2023-10-10T01:25:34.239Z,59.20
2023-10-10T01:28:08.051Z,58.97
2023-10-10T01:30:53.578Z,58.85
2023-10-10T01:33:37.229Z,58.96
2023-10-10T01:36:13.001Z,58.85
2023-10-10T01:38:45.641Z,58.85
2023-10-10T01:41:24.352Z,58.93
2023-10-10T01:44:09.787Z,59.11
2023-10-10T01:46:36.671Z,59.14
2023-10-10T01:49:03.718Z,59.05
2023-10-10T01:51:34.702Z,58.86
2023-10-10T01:54:13.130Z,58.60
2023-10-10T01:56:39.925Z,59.21
2023-10-10T01:59:11.402Z,58.63
2023-10-10T02:01:39.446Z,59.23
2023-10-10T02:04:09.150Z,59.17
2023-10-10T02:06:42.161Z,58.75
2023-10-10T02:09:20.715Z,58.50
2023-10-10T02:11:56.501Z,58.93
2023-10-10T02:14:26.713Z,58.61
2023-10-10T02:16:56.540Z,58.71
2023-10-10T02:19:36.973Z,58.92
2023-10-10T02:22:16.699Z,58.47
2023-10-10T02:24:50.217Z,59.19
2023-10-10T02:27:21.395Z,58.98
2023-10-10T02:29:51.297Z,59.19
2023-10-10T02:32:20.922Z,58.88
2023-10-10T02:35:02.140Z,58.88
2023-10-10T02:37:28.934Z,59.17
2023-10-10T02:40:09.380Z,58.84
2023-10-10T02:42:36.137Z,59.19
2023-10-10T02:45:03.919Z,58.78
2023-10-10T02:47:34.212Z,58.51
2023-10-10T02:50:12.826Z,59.04
2023-10-10T02:52:47.067Z,58.99
2023-10-10T02:55:34.844Z,58.71
2023-10-10T02:58:02.131Z,58.39
2023-10-10T03:00:29.757Z,59.03
2023-10-10T03:03:00.379Z,58.81
2023-10-10T03:05:40.986Z,59.05
2023-10-10T03:08:16.144Z,58.69
2023-10-10T03:10:47.003Z,58.57
2023-10-10T03:13:29.817Z,58.49
2023-10-10T03:15:58.008Z,58.69
2023-10-10T03:18:30.591Z,58.96
2023-10-10T03:21:13.188Z,59.08
2023-10-10T03:23:54.181Z,58.62
2023-10-10T03:26:42.327Z,58.60
2023-10-10T03:29:13.369Z,58.92
2023-10-10T03:31:48.060Z,58.64
2023-10-10T03:34:45.172Z,58.54
2023-10-10T03:37:27.047Z,58.55
2023-10-10T03:39:59.587Z,58.19
2023-10-10T03:42:45.198Z,58.46
2023-10-10T03:45:30.952Z,58.76
2023-10-10T03:48:16.377Z,58.09
2023-10-10T03:51:03.399Z,58.15
2023-10-10T03:53:49.563Z,58.78
2023-10-10T03:56:38.780Z,58.03
2023-10-10T03:59:25.741Z,58.20
2023-10-10T04:02:13.507Z,58.48
2023-10-10T04:05:12.009Z,58.49
2023-10-10T04:08:05.859Z,58.42
2023-10-10T04:10:51.117Z,58.79
2023-10-10T04:13:36.840Z,57.97
2023-10-10T04:16:51.233Z,58.35
2023-10-10T04:19:36.779Z,58.06
2023-10-10T04:22:25.008Z,57.89
2023-10-10T04:25:10.651Z,58.00
2023-10-10T04:27:56.102Z,57.94
2023-10-10T04:30:41.866Z,58.92
2023-10-10T04:33:26.988Z,58.92
2023-10-10T04:36:12.520Z,59.33
2023-10-10T04:38:58.305Z,58.79
2023-10-10T04:41:43.413Z,59.32
2023-10-10T04:44:29.139Z,59.35
2023-10-10T04:47:14.248Z,59.09
2023-10-10T04:49:59.607Z,59.04
2023-10-10T04:52:44.946Z,59.04
2023-10-10T04:55:30.312Z,58.48
2023-10-10T04:58:15.481Z,58.33
2023-10-10T05:01:00.501Z,58.42
2023-10-10T05:03:45.799Z,58.79
2023-10-10T05:06:31.563Z,58.40
2023-10-10T05:09:19.978Z,58.57
2023-10-10T05:12:05.110Z,58.05
2023-10-10T05:14:50.582Z,58.49
2023-10-10T05:17:35.784Z,58.95
2023-10-10T05:20:21.011Z,58.73
2023-10-10T05:23:06.615Z,58.71
2023-10-10T05:25:34.062Z,58.24
2023-10-10T05:28:00.944Z,58.20
2023-10-10T05:30:28.876Z,58.27
2023-10-10T05:33:03.929Z,58.57
2023-10-10T05:35:32.306Z,58.57
2023-10-10T05:38:01.823Z,57.96
2023-10-10T05:40:29.288Z,58.05
2023-10-10T05:42:58.795Z,58.29
2023-10-10T05:45:26.308Z,58.48
2023-10-10T05:47:53.590Z,58.30
2023-10-10T05:50:20.516Z,58.14
2023-10-10T05:52:47.420Z,58.03
2023-10-10T05:55:14.999Z,58.70
2023-10-10T05:57:45.275Z,57.83
2023-10-10T06:00:13.164Z,57.92
2023-10-10T06:02:43.608Z,57.85
2023-10-10T06:05:11.150Z,58.49
2023-10-10T06:07:39.011Z,58.32
2023-10-10T06:10:08.028Z,58.13
2023-10-10T06:12:35.410Z,58.42
2023-10-10T06:15:06.621Z,57.80
2023-10-10T06:17:36.138Z,58.11
2023-10-10T06:20:03.461Z,57.90
2023-10-10T06:22:31.173Z,58.53
2023-10-10T06:25:00.671Z,58.12
2023-10-10T06:27:30.261Z,58.17
2023-10-10T06:30:00.306Z,58.03
2023-10-10T06:32:27.931Z,57.98
2023-10-10T06:35:17.381Z,57.74
2023-10-10T06:37:44.464Z,58.25
2023-10-10T06:40:11.756Z,57.91
2023-10-10T06:42:39.651Z,57.97
2023-10-10T06:45:11.428Z,58.21
2023-10-10T06:47:42.966Z,57.84
2023-10-10T06:50:13.602Z,57.89
2023-10-10T06:52:40.642Z,58.38
2023-10-10T06:55:12.270Z,58.15
2023-10-10T06:57:42.552Z,58.31
2023-10-10T07:00:18.763Z,58.04
2023-10-10T07:02:50.002Z,58.64
2023-10-10T07:05:17.407Z,58.38
2023-10-10T07:07:44.211Z,58.17
2023-10-10T07:10:11.099Z,57.87
2023-10-10T07:12:40.130Z,58.14
2023-10-10T07:15:11.142Z,57.97
2023-10-10T07:17:40.578Z,58.34
2023-10-10T07:20:07.719Z,58.40
2023-10-10T07:22:36.152Z,58.03
2023-10-10T07:25:18.825Z,57.76
2023-10-10T07:27:45.973Z,58.43
2023-10-10T07:30:18.874Z,58.13
2023-10-10T07:32:50.133Z,58.62
2023-10-10T07:35:20.820Z,57.82
2023-10-10T07:37:47.836Z,58.07
2023-10-10T07:40:15.861Z,57.98
2023-10-10T07:42:42.640Z,58.52
2023-10-10T07:45:15.713Z,58.88
2023-10-10T07:47:58.542Z,57.85
2023-10-10T07:50:36.837Z,57.91
2023-10-10T07:53:07.055Z,58.56
2023-10-10T07:55:52.129Z,57.98
2023-10-10T07:58:19.188Z,58.24
2023-10-10T08:00:46.277Z,58.32
2023-10-10T08:03:20.664Z,58.53
2023-10-10T08:05:49.634Z,58.29
2023-10-10T08:08:17.278Z,58.56
2023-10-10T08:10:47.665Z,58.58
2023-10-10T08:13:15.603Z,58.09
2023-10-10T08:15:57.521Z,58.12
2023-10-10T08:18:43.627Z,58.13
2023-10-10T08:21:12.478Z,58.18
2023-10-10T08:23:51.255Z,58.25
2023-10-10T08:26:30.274Z,59.03
2023-10-10T08:28:57.219Z,58.51
2023-10-10T08:31:24.387Z,60.11
2023-10-10T08:33:51.343Z,58.71
2023-10-10T08:36:26.335Z,58.15
2023-10-10T08:38:57.967Z,59.93
2023-10-10T08:41:32.909Z,57.83
2023-10-10T08:44:00.073Z,57.85
2023-10-10T08:46:42.091Z,57.93
2023-10-10T08:49:09.957Z,57.97
2023-10-10T08:51:37.363Z,58.25
2023-10-10T08:54:12.421Z,57.27
2023-10-10T08:56:42.910Z,57.50
2023-10-10T08:59:12.563Z,58.14
2023-10-10T09:01:43.593Z,57.66
2023-10-10T09:04:19.058Z,57.55
2023-10-10T09:06:58.331Z,57.73
2023-10-10T09:09:36.088Z,57.04
2023-10-10T09:12:10.640Z,57.82
2023-10-10T09:14:41.044Z,57.58
2023-10-10T09:17:13.150Z,58.26
2023-10-10T09:19:49.075Z,57.25
2023-10-10T09:22:30.932Z,57.50
2023-10-10T09:24:57.762Z,57.51
2023-10-10T09:27:28.836Z,57.58
2023-10-10T09:29:58.573Z,57.45
2023-10-10T09:32:38.242Z,57.76
2023-10-10T09:35:07.991Z,57.38
2023-10-10T09:37:40.067Z,57.19
2023-10-10T09:40:17.174Z,57.67
2023-10-10T09:43:05.299Z,57.40
2023-10-10T09:45:54.657Z,56.86
2023-10-10T09:48:41.255Z,57.49
2023-10-10T09:51:37.809Z,57.37
2023-10-10T09:54:17.600Z,56.96
2023-10-10T09:57:09.807Z,57.48
2023-10-10T09:59:38.954Z,57.29
2023-10-10T10:02:07.010Z,57.19
2023-10-10T10:04:43.625Z,56.87
2023-10-10T10:07:42.493Z,57.23
2023-10-10T10:10:36.444Z,57.08
2023-10-10T10:13:29.975Z,57.07
2023-10-10T10:16:16.870Z,56.97
2023-10-10T10:18:48.166Z,57.02
2023-10-10T10:21:20.050Z,57.11
2023-10-10T10:23:49.321Z,57.15
2023-10-10T10:26:35.832Z,56.76
2023-10-10T10:29:17.174Z,57.12
2023-10-10T10:31:52.965Z,57.17
2023-10-10T10:34:32.829Z,56.98
2023-10-10T10:37:07.704Z,57.16
2023-10-10T10:39:36.615Z,56.83
2023-10-10T10:42:13.563Z,57.23
2023-10-10T10:45:00.511Z,56.75
2023-10-10T10:47:37.033Z,57.43
2023-10-10T10:50:05.797Z,56.67
2023-10-10T10:52:45.603Z,56.82
2023-10-10T10:55:25.218Z,56.94
2023-10-10T10:58:07.406Z,57.50
2023-10-10T11:00:59.790Z,56.88
2023-10-10T11:03:37.381Z,56.60
2023-10-10T11:06:09.652Z,56.88
2023-10-10T11:08:57.482Z,56.58
2023-10-10T11:11:38.381Z,56.82
2023-10-10T11:14:17.443Z,56.57
2023-10-10T11:16:48.372Z,57.11
2023-10-10T11:19:22.897Z,56.77
2023-10-10T11:22:01.579Z,56.98
2023-10-10T11:24:33.122Z,56.42
2023-10-10T11:27:15.323Z,57.05
2023-10-10T11:29:47.473Z,56.92
2023-10-10T11:32:30.595Z,56.35
2023-10-10T11:35:19.302Z,56.63
2023-10-10T11:37:49.444Z,56.67
2023-10-10T11:40:33.051Z,56.60
2023-10-10T11:43:01.349Z,56.89
2023-10-10T11:45:29.500Z,56.99
2023-10-10T11:48:06.709Z,56.40
2023-10-10T11:50:46.271Z,56.64
2023-10-10T11:53:21.018Z,56.17
2023-10-10T11:55:48.914Z,56.24
2023-10-10T11:58:18.659Z,56.80
2023-10-10T12:00:46.223Z,56.63
2023-10-10T12:03:15.329Z,56.95
2023-10-10T12:05:52.112Z,56.31
2023-10-10T12:08:26.105Z,56.19
2023-10-10T12:10:57.744Z,56.47
2023-10-10T12:13:30.581Z,56.13
2023-10-10T12:16:13.814Z,56.54
2023-10-10T12:18:51.583Z,56.51
2023-10-10T12:21:22.793Z,56.57
2023-10-10T12:24:01.354Z,56.39
2023-10-10T12:26:31.359Z,56.17
2023-10-10T12:28:58.548Z,56.16
2023-10-10T12:31:25.409Z,56.45
2023-10-10T12:33:55.508Z,56.56
2023-10-10T12:36:31.044Z,56.30
2023-10-10T12:39:00.832Z,56.86
2023-10-10T12:41:28.126Z,56.93
2023-10-10T12:43:54.931Z,56.21
2023-10-10T12:46:25.165Z,56.54
2023-10-10T12:48:53.531Z,56.50
2023-10-10T12:51:24.095Z,56.76
2023-10-10T12:53:58.166Z,56.21
2023-10-10T12:56:25.256Z,56.73
2023-10-10T12:59:03.056Z,56.73
2023-10-10T13:01:37.197Z,56.60
2023-10-10T13:04:09.463Z,56.31
2023-10-10T13:06:41.281Z,56.18
2023-10-10T13:09:09.958Z,56.60
2023-10-10T13:11:45.580Z,56.10
2023-10-10T13:14:20.717Z,56.28
2023-10-10T13:16:47.720Z,56.89
2023-10-10T13:19:14.992Z,56.84
2023-10-10T13:21:44.073Z,56.11
2023-10-10T13:24:13.297Z,56.87
2023-10-10T13:26:41.051Z,56.44
2023-10-10T13:29:09.071Z,56.16
2023-10-10T13:31:36.706Z,56.28
2023-10-10T13:34:04.411Z,56.07
2023-10-10T13:36:32.072Z,56.75
2023-10-10T13:39:06.967Z,56.49
2023-10-10T13:41:37.491Z,56.25
2023-10-10T13:44:05.302Z,55.96
2023-10-10T13:46:34.480Z,56.43
2023-10-10T13:49:01.815Z,56.29
2023-10-10T13:51:29.635Z,56.68
2023-10-10T13:53:58.482Z,56.45
2023-10-10T13:56:25.526Z,56.24
2023-10-10T13:58:53.942Z,56.54
2023-10-10T14:01:29.934Z,56.24
2023-10-10T14:04:16.701Z,55.77
2023-10-10T14:06:47.339Z,55.89
2023-10-10T14:09:24.492Z,55.73
2023-10-10T14:11:58.748Z,56.11
2023-10-10T14:14:25.675Z,55.95
2023-10-10T14:16:52.608Z,55.87
2023-10-10T14:19:19.758Z,55.54
2023-10-10T14:21:49.009Z,56.18
2023-10-10T14:24:16.268Z,56.19
2023-10-10T14:26:46.244Z,56.12
2023-10-10T14:29:16.083Z,56.00
2023-10-10T14:31:46.880Z,56.02
2023-10-10T14:34:22.189Z,55.80
2023-10-10T14:36:53.236Z,55.55
2023-10-10T14:39:31.066Z,55.35
2023-10-10T14:41:59.043Z,55.70
2023-10-10T14:44:27.845Z,55.95
2023-10-10T14:47:04.387Z,55.71
2023-10-10T14:49:31.330Z,55.52
2023-10-10T14:52:06.389Z,55.28
2023-10-10T14:54:42.388Z,55.91
2023-10-10T14:57:11.491Z,56.08
2023-10-10T14:59:38.432Z,55.31
2023-10-10T15:02:07.950Z,55.91
2023-10-10T15:04:35.217Z,55.89
2023-10-10T15:07:02.153Z,55.97
2023-10-10T15:09:28.952Z,55.56
2023-10-10T15:12:00.926Z,55.65
2023-10-10T15:14:28.018Z,55.64
2023-10-10T15:16:55.212Z,55.37
2023-10-10T15:19:22.187Z,55.89
2023-10-10T15:21:49.891Z,56.02
2023-10-10T15:24:17.039Z,56.06
2023-10-10T15:26:49.771Z,56.25
2023-10-10T15:29:18.624Z,55.78
2023-10-10T15:31:46.638Z,55.84
2023-10-10T15:34:17.563Z,55.79
2023-10-10T15:36:47.928Z,55.70
2023-10-10T15:39:17.196Z,56.06
2023-10-10T15:41:46.191Z,55.99
2023-10-10T15:44:14.263Z,55.77
2023-10-10T15:46:43.813Z,55.38
2023-10-10T15:49:33.174Z,55.82
2023-10-10T15:52:05.499Z,55.35
2023-10-10T15:54:35.935Z,55.64
2023-10-10T15:57:04.917Z,55.75
2023-10-10T15:59:31.823Z,56.17
2023-10-10T16:01:59.711Z,56.11
2023-10-10T16:04:29.090Z,55.74
2023-10-10T16:06:56.807Z,55.61
2023-10-10T16:09:31.179Z,55.49
2023-10-10T16:11:58.825Z,56.03
2023-10-10T16:14:27.347Z,56.33
2023-10-10T16:16:54.400Z,55.60
2023-10-10T16:19:28.681Z,56.12
2023-10-10T16:21:56.650Z,56.25
2023-10-10T16:24:29.355Z,56.29
2023-10-10T16:27:01.020Z,55.77
2023-10-10T16:29:35.171Z,55.88
2023-10-10T16:32:19.545Z,55.63
2023-10-10T16:34:46.622Z,56.17
2023-10-10T16:37:17.678Z,56.01
2023-10-10T16:39:48.369Z,55.93
2023-10-10T16:42:21.299Z,55.56
2023-10-10T16:44:48.524Z,55.56
2023-10-10T16:47:23.158Z,56.34
2023-10-10T16:49:53.670Z,56.17
2023-10-10T16:52:29.905Z,56.01
2023-10-10T16:54:58.363Z,55.86
2023-10-10T16:57:26.080Z,56.14
2023-10-10T16:59:56.721Z,56.02
2023-10-10T17:02:29.777Z,55.96
2023-10-10T17:04:57.130Z,55.94
2023-10-10T17:07:27.500Z,55.61
2023-10-10T17:09:54.388Z,56.26
2023-10-10T17:12:21.145Z,56.03
2023-10-10T17:14:49.148Z,55.95
2023-10-10T17:17:15.989Z,56.14
2023-10-10T17:19:43.017Z,56.30
2023-10-10T17:22:09.832Z,55.95
2023-10-10T17:24:36.735Z,56.28
2023-10-10T17:27:08.161Z,55.34
2023-10-10T17:29:37.246Z,55.42
2023-10-10T17:32:04.207Z,55.78
2023-10-10T17:34:34.814Z,55.84
2023-10-10T17:37:01.659Z,55.89
2023-10-10T17:39:28.434Z,55.58
2023-10-10T17:41:55.822Z,56.11
2023-10-10T17:44:22.730Z,55.39
2023-10-10T17:46:49.624Z,55.74
2023-10-10T17:49:16.951Z,55.77
2023-10-10T17:51:46.216Z,55.23
2023-10-10T17:54:13.542Z,55.59
2023-10-10T17:56:40.609Z,55.37
2023-10-10T17:59:07.614Z,55.43
2023-10-10T18:01:34.563Z,55.34
2023-10-10T18:04:04.467Z,55.08
2023-10-10T18:06:31.534Z,55.40
2023-10-10T18:09:09.708Z,55.36
2023-10-10T18:11:38.235Z,54.90
2023-10-10T18:14:08.713Z,55.29
2023-10-10T18:16:36.424Z,54.86
2023-10-10T18:19:04.106Z,55.74
2023-10-10T18:21:33.320Z,55.31
2023-10-10T18:24:07.580Z,54.89
2023-10-10T18:26:39.391Z,54.95
2023-10-10T18:29:07.104Z,55.03
2023-10-10T18:31:36.020Z,55.13
2023-10-10T18:34:06.554Z,54.85
2023-10-10T18:36:38.456Z,54.78
2023-10-10T18:39:13.218Z,54.77
2023-10-10T18:41:44.543Z,54.85
2023-10-10T18:44:12.259Z,54.49
2023-10-10T18:46:39.404Z,54.86
2023-10-10T18:49:10.850Z,55.24
2023-10-10T18:51:37.811Z,54.88
2023-10-10T18:54:09.988Z,54.98
2023-10-10T18:56:36.989Z,55.21
2023-10-10T18:59:03.837Z,55.16
2023-10-10T19:01:30.643Z,55.01
2023-10-10T19:04:00.422Z,54.24
2023-10-10T19:06:28.041Z,54.16
2023-10-10T19:09:01.148Z,54.62
2023-10-10T19:11:28.290Z,54.27
2023-10-10T19:13:55.471Z,54.09
2023-10-10T19:16:22.858Z,54.42
2023-10-10T19:18:49.752Z,54.73
2023-10-10T19:21:18.501Z,55.05
2023-10-10T19:23:49.524Z,54.00
2023-10-10T19:26:16.867Z,54.70
2023-10-10T19:28:44.447Z,54.62
2023-10-10T19:31:11.312Z,55.08
2023-10-10T19:33:38.276Z,54.31
2023-10-10T19:36:09.400Z,53.94
2023-10-10T19:38:36.402Z,54.76
2023-10-10T19:41:10.264Z,54.70
2023-10-10T19:43:38.377Z,54.11
2023-10-10T19:46:11.949Z,54.90
2023-10-10T19:48:43.520Z,54.23
2023-10-10T19:51:18.528Z,53.14
2023-10-10T19:53:46.869Z,53.27
2023-10-10T19:56:13.820Z,53.69
2023-10-10T19:58:43.239Z,53.74
2023-10-10T20:01:10.511Z,53.95
2023-10-10T20:03:37.698Z,53.65
2023-10-10T20:06:08.172Z,53.36
2023-10-10T20:08:36.095Z,53.71
2023-10-10T20:11:04.870Z,53.29
2023-10-10T20:13:31.755Z,53.27
2023-10-10T20:15:58.572Z,53.60
2023-10-10T20:18:26.486Z,53.33
2023-10-10T20:20:53.584Z,53.76
2023-10-10T20:23:22.234Z,53.71
2023-10-10T20:25:52.649Z,53.20
2023-10-10T20:28:19.533Z,53.01
2023-10-10T20:30:47.112Z,53.74
2023-10-10T20:33:17.708Z,53.24
2023-10-10T20:35:46.208Z,53.26
2023-10-10T20:38:13.768Z,53.95
2023-10-10T20:40:44.331Z,53.59
2023-10-10T20:43:12.081Z,53.41
2023-10-10T20:45:39.467Z,53.14
2023-10-10T20:48:12.928Z,53.56
2023-10-10T20:53:32.181Z,54.35
2023-10-10T20:55:59.079Z,54.20
2023-10-10T20:58:25.866Z,54.32
2023-10-10T21:00:52.780Z,53.91
2023-10-10T21:03:20.061Z,53.70
2023-10-10T21:05:49.007Z,54.06
2023-10-10T21:08:19.010Z,53.98
2023-10-10T21:09:13.534Z,54.35
2023-10-10T21:11:11.723Z,54.11
2023-10-10T21:13:38.642Z,54.15
2023-10-10T21:16:16.164Z,54.44
2023-10-10T21:18:43.884Z,53.86
2023-10-10T21:21:12.190Z,54.39
2023-10-10T21:23:40.115Z,54.00
2023-10-10T21:26:12.049Z,54.67
2023-10-10T21:28:38.887Z,54.07
2023-10-10T21:31:11.427Z,54.82
2023-10-10T21:33:42.081Z,54.28
2023-10-10T21:36:09.479Z,54.91
2023-10-10T21:38:36.501Z,54.60
2023-10-10T21:41:05.027Z,54.47
2023-10-10T21:43:34.640Z,54.53
2023-10-10T21:46:05.818Z,54.16
2023-10-10T21:48:32.823Z,54.64
2023-10-10T21:51:01.083Z,54.65
2023-10-10T21:53:28.604Z,54.77
2023-10-10T21:55:55.479Z,54.75
2023-10-10T21:58:22.250Z,54.71
2023-10-10T22:00:50.616Z,54.84
2023-10-10T22:03:17.493Z,54.10
2023-10-10T22:05:46.615Z,53.97
2023-10-10T22:08:14.261Z,54.24
2023-10-10T22:10:43.387Z,54.74
2023-10-10T22:13:12.803Z,54.19
2023-10-10T22:15:39.632Z,54.76
2023-10-10T22:18:06.677Z,54.95
2023-10-10T22:20:36.745Z,54.13
2023-10-10T22:23:06.065Z,54.33
2023-10-10T22:25:36.073Z,54.72
2023-10-10T22:28:05.353Z,54.24
2023-10-10T22:30:39.292Z,54.05
2023-10-10T22:33:12.460Z,54.84
2023-10-10T22:35:39.949Z,54.25
2023-10-10T22:38:07.288Z,54.47
2023-10-10T22:40:34.878Z,54.04
2023-10-10T22:43:04.220Z,54.01
2023-10-10T22:45:36.721Z,54.37
2023-10-10T22:48:05.771Z,54.17
2023-10-10T22:50:33.270Z,53.95
2023-10-10T22:53:02.705Z,54.06
2023-10-10T22:55:35.161Z,53.69
2023-10-10T22:58:08.323Z,54.41
2023-10-10T23:00:39.590Z,54.08
2023-10-10T23:03:14.313Z,54.30
2023-10-10T23:05:44.301Z,54.36
2023-10-10T23:08:12.682Z,54.30
2023-10-10T23:10:41.242Z,53.73
2023-10-10T23:13:08.413Z,54.33
2023-10-10T23:15:39.050Z,53.78
2023-10-10T23:18:12.164Z,53.92
2023-10-10T23:20:42.965Z,53.80
2023-10-10T23:23:11.627Z,54.13
2023-10-10T23:25:38.711Z,53.63
2023-10-10T23:28:05.575Z,53.68
2023-10-10T23:30:34.513Z,54.13
2023-10-10T23:33:01.979Z,53.90
2023-10-10T23:35:28.853Z,53.60
2023-10-10T23:38:01.992Z,53.31
2023-10-10T23:40:47.271Z,53.40
2023-10-10T23:43:20.085Z,53.97
2023-10-10T23:45:49.967Z,53.65
2023-10-10T23:48:17.721Z,53.84
2023-10-10T23:50:45.966Z,54.09
2023-10-10T23:53:14.516Z,53.84
2023-10-10T23:55:42.202Z,53.82
2023-10-10T23:58:13.351Z,54.11
